Time;durP1;ratioP1;P1;durP2;ratioP2;P2;SDS_P1;SDS_P2;PMS_P1;PMS_P2;Temp;Humidity;BMP_temperature;BMP_pressure;BME280_temperature;BME280_humidity;BME280_pressure;Samples;Min_cycle;Max_cycle;Signal;HPM_P1;HPM_P2
2021/12/14 00:01:21;;;;;;;20.73;11.00;;;-0.30;99.90;;;;;;5032203;28;20155;-76
2021/12/14 00:03:50;;;;;;;23.00;10.38;;;-0.30;99.90;;;;;;5031987;28;20213;-76
2021/12/14 00:06:20;;;;;;;18.05;9.60;;;-0.30;99.90;;;;;;5032064;28;20177;-76
2021/12/14 00:08:56;;;;;;;16.77;10.73;;;-0.30;99.90;;;;;;5032047;28;20158;-76
2021/12/14 00:11:52;;;;;;;15.13;8.30;;;-0.30;99.90;;;;;;5032029;28;20673;-76
2021/12/14 00:15:13;;;;;;;18.08;10.15;;;-0.30;99.90;;;;;;5031919;28;20214;-76
2021/12/14 00:17:45;;;;;;;18.33;9.38;;;-0.30;99.90;;;;;;5024495;28;20194;-77
2021/12/14 00:20:23;;;;;;;16.15;9.30;;;-0.40;99.90;;;;;;5030570;28;20228;-77
2021/12/14 00:25:29;;;;;;;13.48;8.98;;;-0.40;99.90;;;;;;5031696;28;20659;-76
2021/12/14 00:27:59;;;;;;;14.38;9.27;;;-0.40;99.90;;;;;;5031801;28;20158;-75
2021/12/14 00:30:25;;;;;;;16.80;8.75;;;-0.40;99.90;;;;;;5031539;28;20194;-75
2021/12/14 00:32:52;;;;;;;20.23;8.27;;;-0.50;99.90;;;;;;5031586;28;20186;-75
2021/12/14 00:35:20;;;;;;;14.45;8.63;;;-0.50;99.90;;;;;;5031191;28;20170;-75
2021/12/14 00:37:52;;;;;;;16.50;8.88;;;-0.50;99.90;;;;;;5031535;28;20522;-75
2021/12/14 00:40:32;;;;;;;15.10;7.65;;;-0.50;99.90;;;;;;5031455;28;20190;-76
2021/12/14 00:43:00;;;;;;;13.07;8.10;;;-0.60;99.90;;;;;;5014271;28;20173;-75
2021/12/14 00:45:28;;;;;;;14.43;7.80;;;-0.50;99.90;;;;;;5032162;28;20209;-76
2021/12/14 00:47:56;;;;;;;15.20;7.95;;;-0.60;99.90;;;;;;5032338;28;20181;-75
2021/12/14 00:50:24;;;;;;;15.65;7.72;;;-0.70;99.90;;;;;;5032322;28;20186;-75
2021/12/14 00:52:50;;;;;;;18.08;9.13;;;-0.80;99.90;;;;;;5014863;28;20169;-75
2021/12/14 00:55:24;;;;;;;14.52;7.55;;;-0.70;99.90;;;;;;5014598;28;20519;-75
2021/12/14 00:57:52;;;;;;;11.68;7.07;;;-0.60;99.90;;;;;;5032218;28;20213;-75
2021/12/14 01:00:23;;;;;;;15.95;7.70;;;-0.70;99.90;;;;;;5032450;28;20198;-75
2021/12/14 01:02:50;;;;;;;13.80;7.30;;;-0.80;99.90;;;;;;5033147;28;20169;-76
2021/12/14 01:05:29;;;;;;;13.65;7.18;;;-0.80;99.90;;;;;;5032889;28;20196;-75
2021/12/14 01:07:55;;;;;;;11.00;7.25;;;-0.80;99.90;;;;;;5033148;28;20173;-76
2021/12/14 01:10:34;;;;;;;16.80;7.65;;;-0.90;99.90;;;;;;5032720;28;20214;-75
2021/12/14 01:13:05;;;;;;;10.90;6.55;;;-0.80;99.90;;;;;;5033367;28;20154;-75
2021/12/14 01:18:47;;;;;;;14.20;7.03;;;-0.50;99.90;;;;;;5032709;28;20150;-75
2021/12/14 01:22:13;;;;;;;10.55;5.97;;;-0.40;99.90;;;;;;5032354;28;20172;-76
2021/12/14 01:24:22;;;;;;;9.43;6.03;;;-0.40;99.90;;;;;;5024287;28;20244;-75
2021/12/14 01:26:49;;;;;;;8.90;5.13;;;-0.40;99.90;;;;;;5032849;28;20178;-75
2021/12/14 01:29:18;;;;;;;17.83;6.20;;;-0.30;99.90;;;;;;5032616;28;20193;-75
2021/12/14 01:31:47;;;;;;;16.67;6.10;;;-0.30;99.90;;;;;;5032979;28;20154;-76
2021/12/14 01:34:22;;;;;;;11.68;5.47;;;-0.40;99.90;;;;;;5033420;28;20208;-75
2021/12/14 01:36:55;;;;;;;11.13;6.40;;;-0.50;99.90;;;;;;5033126;28;20161;-76
2021/12/14 01:42:04;;;;;;;9.52;5.30;;;-0.50;99.90;;;;;;5033531;28;20169;-76
2021/12/14 01:44:35;;;;;;;10.15;5.70;;;-0.60;99.90;;;;;;5033736;28;20189;-76
2021/12/14 01:47:08;;;;;;;14.60;6.65;;;-0.60;99.90;;;;;;5033016;28;20154;-75
2021/12/14 01:49:35;;;;;;;10.18;6.28;;;-0.60;99.90;;;;;;5015443;28;20221;-75
2021/12/14 01:52:08;;;;;;;11.77;5.53;;;-0.70;99.90;;;;;;5032902;28;20150;-76
2021/12/14 01:54:43;;;;;;;16.73;5.85;;;-0.70;99.90;;;;;;5032530;28;20154;-76
2021/12/14 01:57:14;;;;;;;8.77;5.10;;;-0.70;99.90;;;;;;5033118;28;20162;-76
2021/12/14 01:59:44;;;;;;;15.65;5.35;;;-0.70;99.90;;;;;;5049019;28;20224;-75
2021/12/14 02:02:25;;;;;;;13.07;6.10;;;-0.70;99.90;;;;;;5052015;28;20232;-76
2021/12/14 02:04:54;;;;;;;12.73;5.55;;;-0.70;99.90;;;;;;5051769;28;20189;-77
2021/12/14 02:07:22;;;;;;;12.73;5.35;;;-0.70;99.90;;;;;;5051995;28;20168;-76
2021/12/14 02:09:56;;;;;;;9.70;5.40;;;-0.50;99.90;;;;;;5051546;28;20196;-76
2021/12/14 02:12:25;;;;;;;12.98;6.00;;;-0.40;99.90;;;;;;5050175;28;20177;-76
2021/12/14 02:14:53;;;;;;;8.73;4.57;;;-0.50;99.90;;;;;;5049862;28;20180;-76
2021/12/14 02:17:21;;;;;;;9.80;5.47;;;-0.50;99.90;;;;;;5050576;28;20172;-76
2021/12/14 02:19:49;;;;;;;11.07;5.55;;;-0.50;99.90;;;;;;5050320;28;20209;-75
2021/12/14 02:22:16;;;;;;;11.55;4.93;;;-0.50;99.90;;;;;;5050287;28;20177;-75
2021/12/14 02:24:51;;;;;;;9.27;5.50;;;-0.50;99.90;;;;;;5049065;28;20207;-75
2021/12/14 02:27:18;;;;;;;9.55;5.88;;;-0.50;99.90;;;;;;5050494;28;20161;-75
2021/12/14 02:29:47;;;;;;;7.82;4.72;;;-0.50;99.90;;;;;;5049906;28;20196;-76
2021/12/14 02:32:21;;;;;;;12.63;5.53;;;-0.40;99.90;;;;;;5049870;28;20169;-76
2021/12/14 02:35:00;;;;;;;9.23;4.57;;;-0.40;99.90;;;;;;5048632;28;20245;-75
2021/12/14 02:37:52;;;;;;;8.27;4.60;;;-0.50;99.90;;;;;;5049841;28;20191;-75
2021/12/14 02:40:32;;;;;;;7.20;4.85;;;-0.60;99.90;;;;;;5049352;28;20257;-76
2021/12/14 02:43:01;;;;;;;7.20;4.50;;;-0.70;99.90;;;;;;5049527;28;20164;-75
2021/12/14 02:45:28;;;;;;;10.07;5.38;;;-0.80;99.90;;;;;;5049308;28;20189;-76
2021/12/14 02:47:55;;;;;;;16.08;5.82;;;-0.90;99.90;;;;;;5049724;28;20221;-75
2021/12/14 02:50:23;;;;;;;10.00;5.68;;;-0.90;99.90;;;;;;5048247;28;20193;-76
2021/12/14 02:52:49;;;;;;;18.33;6.00;;;-1.00;99.90;;;;;;5049649;28;20166;-76
2021/12/14 02:55:24;;;;;;;9.82;5.30;;;-1.10;99.90;;;;;;5049182;28;20168;-76
2021/12/14 02:57:55;;;;;;;13.50;5.65;;;-1.00;99.90;;;;;;5045866;28;20296;-75
2021/12/14 03:00:30;;;;;;;9.80;5.15;;;-0.90;99.90;;;;;;5034199;28;20217;-78
2021/12/14 03:02:57;;;;;;;10.38;5.95;;;-0.90;99.90;;;;;;5033954;28;20527;-77
2021/12/14 03:05:28;;;;;;;10.27;5.40;;;-0.90;99.90;;;;;;5033477;28;20193;-75
2021/12/14 03:08:00;;;;;;;9.00;4.72;;;-1.00;99.90;;;;;;5033399;28;20162;-75
2021/12/14 03:10:39;;;;;;;8.18;4.55;;;-1.00;99.90;;;;;;5033200;28;20186;-77
2021/12/14 03:13:11;;;;;;;14.77;4.78;;;-0.90;99.90;;;;;;5033235;28;20204;-77
2021/12/14 03:15:48;;;;;;;8.40;4.80;;;-0.70;99.90;;;;;;5033248;28;20165;-78
2021/12/14 03:18:23;;;;;;;11.40;5.88;;;-0.50;99.90;;;;;;5033252;28;20166;-74
2021/12/14 03:21:03;;;;;;;11.77;5.88;;;-0.40;99.90;;;;;;5033029;28;20193;-77
2021/12/14 03:23:37;;;;;;;13.68;6.57;;;-0.40;99.90;;;;;;5033181;28;20230;-77
2021/12/14 03:26:05;;;;;;;11.00;4.97;;;-0.40;99.90;;;;;;5015452;28;20196;-77
2021/12/14 03:28:33;;;;;;;7.82;4.90;;;-0.40;99.90;;;;;;5033015;28;20178;-76
2021/12/14 03:31:11;;;;;;;11.25;4.60;;;-0.50;99.90;;;;;;5032900;28;20190;-77
2021/12/14 03:33:43;;;;;;;14.40;5.47;;;-0.50;99.90;;;;;;5032809;28;20162;-77
2021/12/14 03:36:31;;;;;;;9.40;5.15;;;-0.60;99.90;;;;;;5015327;28;20246;-76
2021/12/14 03:39:01;;;;;;;9.10;4.60;;;-0.70;99.90;;;;;;5031804;28;20206;-77
2021/12/14 03:41:38;;;;;;;13.80;5.53;;;-0.80;99.90;;;;;;5032557;28;20161;-76
2021/12/14 03:44:10;;;;;;;9.15;4.32;;;-0.90;99.90;;;;;;5032359;28;20190;-75
2021/12/14 03:46:51;;;;;;;12.60;5.47;;;-0.80;99.90;;;;;;5032616;28;20162;-74
2021/12/14 03:49:19;;;;;;;14.55;5.93;;;-0.90;99.90;;;;;;5032518;28;20554;-76
2021/12/14 03:51:45;;;;;;;6.38;3.75;;;-0.90;99.90;;;;;;5014722;28;20185;-76
2021/12/14 03:54:15;;;;;;;12.15;5.78;;;-1.00;99.90;;;;;;5032302;28;20173;-76
2021/12/14 03:56:41;;;;;;;10.77;5.60;;;-1.00;99.90;;;;;;5032357;28;20164;-77
2021/12/14 03:59:07;;;;;;;18.38;5.65;;;-1.10;99.90;;;;;;5038992;28;20237;-75
2021/12/14 04:01:38;;;;;;;11.65;5.57;;;-0.90;99.90;;;;;;5052322;28;20162;-75
2021/12/14 04:04:19;;;;;;;8.43;5.20;;;-0.80;99.90;;;;;;5052086;28;20189;-76
2021/12/14 04:06:50;;;;;;;16.92;5.80;;;-0.70;99.90;;;;;;5052101;28;20199;-77
2021/12/14 04:09:19;;;;;;;14.48;7.78;;;-0.60;99.90;;;;;;5051918;28;20189;-77
2021/12/14 04:11:45;;;;;;;11.13;5.85;;;-0.60;99.90;;;;;;5050006;28;20181;-76
2021/12/14 04:14:13;;;;;;;9.85;6.43;;;-0.50;99.90;;;;;;5051871;28;20161;-76
2021/12/14 04:16:45;;;;;;;13.13;6.07;;;-0.50;99.90;;;;;;5050401;28;20231;-77
2021/12/14 04:19:14;;;;;;;15.50;7.53;;;-0.50;99.90;;;;;;5051753;28;20219;-76
2021/12/14 04:21:44;;;;;;;11.48;6.28;;;-0.50;99.90;;;;;;5051715;28;20184;-76
2021/12/14 04:24:11;;;;;;;9.52;5.85;;;-0.40;99.90;;;;;;5051704;28;20588;-76
2021/12/14 04:26:44;;;;;;;24.00;5.97;;;-0.30;99.90;;;;;;5051780;28;20157;-77
2021/12/14 04:29:12;;;;;;;11.45;6.38;;;-0.20;99.90;;;;;;5051597;28;20260;-77
2021/12/14 04:31:40;;;;;;;25.90;6.15;;;-0.20;99.90;;;;;;5051690;28;20154;-77
2021/12/14 04:34:07;;;;;;;8.82;6.00;;;-0.10;99.90;;;;;;5051528;28;20252;-77
2021/12/14 04:36:34;;;;;;;6.40;4.60;;;0.00;99.90;;;;;;5051675;28;20172;-77
2021/12/14 04:39:31;;;;;;;13.43;5.28;;;0.00;99.90;;;;;;5051621;28;20196;-75
2021/12/14 04:53:40;;;;;;;12.50;5.30;;;-0.10;99.90;;;;;;5050877;28;20664;-77
2021/12/14 04:56:10;;;;;;;9.00;4.45;;;-0.10;99.90;;;;;;5051175;28;20185;-77
2021/12/14 04:58:41;;;;;;;12.80;5.07;;;-0.10;99.90;;;;;;5040909;28;20225;-77
2021/12/14 05:01:10;;;;;;;20.50;5.47;;;-0.10;99.90;;;;;;5013387;28;20189;-77
2021/12/14 05:03:43;;;;;;;10.35;5.25;;;-0.10;99.90;;;;;;5030921;28;20168;-74
2021/12/14 05:06:19;;;;;;;9.32;5.43;;;0.00;99.90;;;;;;5031036;28;20157;-75
2021/12/14 05:11:21;;;;;;;6.97;4.50;;;-0.10;99.90;;;;;;5030706;28;20158;-74
2021/12/14 05:13:52;;;;;;;9.23;4.53;;;-0.20;99.90;;;;;;5030935;28;20214;-75
2021/12/14 05:16:25;;;;;;;12.93;5.03;;;-0.20;99.90;;;;;;5030815;28;20162;-75
2021/12/14 05:18:54;;;;;;;10.80;3.88;;;-0.30;99.90;;;;;;5030693;28;20150;-75
2021/12/14 05:21:32;;;;;;;8.80;3.47;;;-0.30;99.90;;;;;;5030263;28;20213;-77
2021/12/14 05:24:01;;;;;;;11.77;4.18;;;-0.30;99.90;;;;;;5012500;28;20201;-76
2021/12/14 05:26:27;;;;;;;11.52;4.20;;;-0.20;99.90;;;;;;5030671;28;20174;-75
2021/12/14 05:28:54;;;;;;;13.13;5.45;;;-0.30;99.90;;;;;;5030449;28;20215;-75
2021/12/14 05:31:20;;;;;;;14.25;5.28;;;-0.30;99.90;;;;;;5030446;28;20170;-75
2021/12/14 05:33:46;;;;;;;10.70;4.25;;;-0.20;99.90;;;;;;5030239;28;20204;-76
2021/12/14 05:36:16;;;;;;;12.73;5.38;;;-0.30;99.90;;;;;;5012836;28;20166;-76
2021/12/14 05:43:59;;;;;;;12.70;5.10;;;-0.50;99.90;;;;;;5030091;28;20188;-75
2021/12/14 05:46:26;;;;;;;9.25;4.35;;;-0.60;99.90;;;;;;5030160;28;20162;-75
2021/12/14 05:49:02;;;;;;;15.63;6.18;;;-0.60;99.90;;;;;;5030215;28;20150;-75
2021/12/14 05:51:30;;;;;;;26.27;5.15;;;-0.70;99.90;;;;;;5030184;28;20158;-74
2021/12/14 05:53:58;;;;;;;15.85;6.50;;;-0.60;99.90;;;;;;5029946;28;20158;-75
2021/12/14 05:56:26;;;;;;;18.88;6.07;;;-0.50;99.90;;;;;;5029872;28;20166;-75
2021/12/14 05:58:55;;;;;;;16.67;5.97;;;-0.50;99.90;;;;;;5029801;28;20229;-77
2021/12/14 06:01:25;;;;;;;19.73;6.53;;;-0.50;99.90;;;;;;5029813;28;20158;-75
2021/12/14 06:03:58;;;;;;;36.40;6.88;;;-0.40;99.90;;;;;;5012005;28;20566;-75
2021/12/14 06:06:31;;;;;;;16.88;6.28;;;-0.40;99.90;;;;;;5029963;28;20245;-77
2021/12/14 06:09:14;;;;;;;20.98;7.88;;;-0.30;99.90;;;;;;5029278;28;20201;-75
2021/12/14 06:11:42;;;;;;;21.52;7.72;;;-0.30;99.90;;;;;;5029498;28;20213;-76
2021/12/14 06:14:18;;;;;;;25.52;6.95;;;-0.30;99.90;;;;;;5029795;28;20169;-77
2021/12/14 06:16:47;;;;;;;28.77;7.28;;;-0.20;99.90;;;;;;5029695;28;20158;-77
2021/12/14 06:19:23;;;;;;;41.63;6.53;;;-0.20;99.90;;;;;;5029567;28;20190;-77
2021/12/14 06:22:00;;;;;;;20.80;6.97;;;-0.20;99.90;;;;;;5029657;28;20153;-77
2021/12/14 06:24:29;;;;;;;18.00;5.93;;;-0.10;99.90;;;;;;5029705;28;20245;-78
2021/12/14 06:26:57;;;;;;;17.60;5.93;;;-0.10;99.90;;;;;;5029662;28;20154;-78
2021/12/14 06:29:38;;;;;;;18.95;6.55;;;-0.10;99.90;;;;;;5029664;28;20198;-77
2021/12/14 06:32:11;;;;;;;13.10;5.97;;;-0.10;99.90;;;;;;5029533;28;20161;-76
2021/12/14 06:34:45;;;;;;;23.35;6.72;;;-0.10;99.90;;;;;;5029551;28;20162;-77
2021/12/14 06:37:28;;;;;;;16.42;6.10;;;0.00;99.90;;;;;;5029619;28;20158;-77
2021/12/14 06:40:06;;;;;;;14.73;5.63;;;0.00;99.90;;;;;;5029380;28;20224;-77
2021/12/14 06:42:34;;;;;;;14.85;5.28;;;-0.10;99.90;;;;;;5029565;28;20155;-77
2021/12/14 06:45:11;;;;;;;11.77;5.18;;;-0.20;99.90;;;;;;5011603;28;20209;-78
2021/12/14 06:47:40;;;;;;;14.30;5.30;;;-0.30;99.90;;;;;;5029451;28;20165;-77
2021/12/14 06:50:13;;;;;;;11.80;4.78;;;-0.40;99.90;;;;;;5029544;28;20192;-77
2021/12/14 06:52:40;;;;;;;10.68;5.82;;;-0.40;99.90;;;;;;5029013;28;20181;-77
2021/12/14 06:55:08;;;;;;;30.17;5.28;;;-0.40;99.90;;;;;;5029381;28;20165;-77
2021/12/14 06:57:34;;;;;;;7.47;4.15;;;-0.30;99.90;;;;;;5029114;28;20180;-77
2021/12/14 07:00:01;;;;;;;15.30;6.28;;;-0.40;99.90;;;;;;5029335;28;20205;-78
2021/12/14 07:02:27;;;;;;;12.73;7.30;;;-0.30;99.90;;;;;;5029020;28;20248;-78
2021/12/14 07:04:53;;;;;;;22.88;7.53;;;-0.30;99.90;;;;;;5029246;28;20181;-77
2021/12/14 07:07:25;;;;;;;19.17;7.63;;;-0.40;99.90;;;;;;5011655;28;20170;-77
2021/12/14 07:09:57;;;;;;;24.90;8.38;;;-0.40;99.90;;;;;;5029092;28;20217;-78
2021/12/14 07:12:33;;;;;;;34.17;7.53;;;-0.40;99.90;;;;;;5029839;28;20527;-77
2021/12/14 07:15:07;;;;;;;26.13;9.45;;;-0.40;99.90;;;;;;5012150;28;20165;-77
2021/12/14 07:17:42;;;;;;;15.40;7.93;;;-0.40;99.90;;;;;;5029478;28;20182;-78
2021/12/14 07:20:11;;;;;;;23.35;8.30;;;-0.40;99.90;;;;;;5029760;28;20204;-78
2021/12/14 07:22:44;;;;;;;29.05;10.18;;;-0.30;99.90;;;;;;5030332;28;20162;-78
2021/12/14 07:25:21;;;;;;;12.07;7.13;;;-0.30;99.90;;;;;;5012846;28;20197;-77
2021/12/14 07:27:52;;;;;;;31.27;6.78;;;-0.20;99.90;;;;;;5029633;28;20650;-78
2021/12/14 07:30:33;;;;;;;24.10;7.05;;;0.00;99.90;;;;;;5030109;28;20237;-78
2021/12/14 07:33:01;;;;;;;15.48;6.70;;;0.00;99.90;;;;;;5030999;28;20173;-78
2021/12/14 07:35:32;;;;;;;15.68;7.53;;;0.10;99.90;;;;;;5030868;28;20165;-78
2021/12/14 07:38:27;;;;;;;12.55;6.95;;;0.20;99.90;;;;;;5030609;28;20182;-78
2021/12/14 07:41:01;;;;;;;11.63;6.65;;;0.40;99.90;;;;;;5028168;28;20220;-78
2021/12/14 07:43:48;;;;;;;19.60;7.13;;;0.50;99.90;;;;;;5030745;28;20200;-79
2021/12/14 07:46:42;;;;;;;18.50;8.98;;;0.40;99.90;;;;;;5033295;28;20268;-79
2021/12/14 07:49:26;;;;;;;19.77;8.45;;;0.40;99.90;;;;;;5020587;28;20241;-78
2021/12/14 07:51:58;;;;;;;16.58;8.38;;;0.50;99.90;;;;;;5032853;28;20218;-79
2021/12/14 07:54:44;;;;;;;17.67;7.65;;;0.60;99.90;;;;;;5015116;28;20261;-79
2021/12/14 07:57:19;;;;;;;25.05;11.05;;;0.80;99.90;;;;;;5032368;28;20218;-77
2021/12/14 08:00:08;;;;;;;32.78;12.98;;;2.40;99.90;;;;;;5031814;28;20228;-78
2021/12/14 08:02:51;;;;;;;34.95;13.20;;;2.90;99.90;;;;;;5032261;28;20166;-79
2021/12/14 08:05:27;;;;;;;25.90;13.52;;;2.40;99.90;;;;;;5032011;28;20197;-81
2021/12/14 08:08:15;;;;;;;34.72;16.70;;;2.70;99.90;;;;;;5031959;28;20241;-82
2021/12/14 08:10:56;;;;;;;39.00;15.02;;;3.70;99.90;;;;;;5031791;28;20265;-79
2021/12/14 08:13:24;;;;;;;44.53;18.63;;;5.70;99.90;;;;;;5031960;28;20182;-79
2021/12/14 08:15:59;;;;;;;44.75;20.00;;;6.40;99.90;;;;;;5014220;28;20542;-79
2021/12/14 08:18:35;;;;;;;35.63;18.00;;;4.80;99.90;;;;;;5031411;28;20165;-80
2021/12/14 08:21:09;;;;;;;38.25;16.83;;;3.90;99.90;;;;;;5031754;28;20153;-81
2021/12/14 08:23:37;;;;;;;44.42;18.33;;;4.60;99.90;;;;;;5014105;28;20306;-79
2021/12/14 08:26:14;;;;;;;36.40;18.15;;;4.60;99.90;;;;;;5031595;28;20244;-79
2021/12/14 08:28:56;;;;;;;44.75;19.00;;;5.50;99.90;;;;;;5031453;28;20169;-81
2021/12/14 08:31:30;;;;;;;37.53;17.77;;;6.60;99.90;;;;;;5031554;28;20633;-81
2021/12/14 08:34:03;;;;;;;25.02;13.00;;;6.70;99.90;;;;;;5031455;28;20574;-79
2021/12/14 08:36:54;;;;;;;20.77;13.00;;;7.20;99.90;;;;;;5013855;28;20177;-80
2021/12/14 08:39:28;;;;;;;13.43;9.48;;;8.30;99.90;;;;;;5031371;28;20197;-79
2021/12/14 08:42:35;;;;;;;18.17;9.68;;;9.60;99.90;;;;;;5013580;28;20233;-79
2021/12/14 08:45:25;;;;;;;12.95;7.05;;;9.80;99.90;;;;;;5031155;28;20186;-79
2021/12/14 08:48:15;;;;;;;10.02;5.88;;;10.10;99.90;;;;;;5031147;28;20159;-79
2021/12/14 08:50:52;;;;;;;9.60;5.05;;;10.30;99.90;;;;;;5031258;28;20182;-79
2021/12/14 08:53:19;;;;;;;14.77;4.85;;;10.40;99.90;;;;;;5031461;28;20526;-79
2021/12/14 08:55:50;;;;;;;10.73;4.95;;;10.20;99.90;;;;;;5031131;28;20194;-79
2021/12/14 08:58:18;;;;;;;7.68;4.30;;;10.30;99.90;;;;;;5030866;28;20233;-79
2021/12/14 09:00:50;;;;;;;12.82;5.15;;;10.40;99.90;;;;;;5030860;28;20202;-79
2021/12/14 09:03:33;;;;;;;7.40;4.60;;;10.90;99.90;;;;;;5030855;28;20158;-79
2021/12/14 09:06:08;;;;;;;9.15;4.60;;;11.20;99.90;;;;;;5030959;28;20194;-79
2021/12/14 09:08:35;;;;;;;8.55;4.82;;;11.70;99.90;;;;;;5030818;28;20221;-79
2021/12/14 09:11:03;;;;;;;12.27;4.40;;;11.80;99.90;;;;;;5030702;28;20189;-79
2021/12/14 09:13:30;;;;;;;8.02;4.35;;;12.10;99.90;;;;;;5030743;28;20164;-78
2021/12/14 09:16:00;;;;;;;9.88;5.05;;;11.90;99.90;;;;;;5030637;28;20174;-79
2021/12/14 09:18:33;;;;;;;8.40;4.05;;;11.50;99.90;;;;;;5030707;28;20189;-79
2021/12/14 09:21:06;;;;;;;8.60;4.25;;;11.40;99.90;;;;;;5030718;28;20194;-79
2021/12/14 09:23:37;;;;;;;11.77;5.18;;;11.10;99.90;;;;;;5030500;28;20169;-79
2021/12/14 09:26:08;;;;;;;11.57;4.63;;;10.90;99.90;;;;;;5030449;28;20182;-79
2021/12/14 09:28:35;;;;;;;13.77;5.50;;;11.80;99.90;;;;;;5030351;28;20178;-79
2021/12/14 09:31:08;;;;;;;9.82;5.55;;;12.10;99.90;;;;;;5030596;28;20169;-79
2021/12/14 09:33:36;;;;;;;9.90;4.82;;;12.60;99.90;;;;;;5030419;28;20623;-79
2021/12/14 09:36:11;;;;;;;6.60;4.75;;;13.20;99.90;;;;;;5030403;28;20236;-79
2021/12/14 09:38:40;;;;;;;13.40;5.13;;;13.20;99.90;;;;;;5030226;28;20173;-79
2021/12/14 09:41:09;;;;;;;9.38;4.88;;;12.70;99.90;;;;;;5030257;28;20188;-78
2021/12/14 09:43:36;;;;;;;11.93;5.03;;;12.50;99.90;;;;;;5030296;28;20189;-79
2021/12/14 09:46:03;;;;;;;10.23;4.88;;;12.70;99.90;;;;;;5030055;28;20201;-79
2021/12/14 09:48:50;;;;;;;7.82;4.85;;;12.60;99.90;;;;;;5029855;28;20161;-79
2021/12/14 09:51:21;;;;;;;11.45;4.88;;;12.80;99.90;;;;;;5030102;28;20169;-79
2021/12/14 09:53:51;;;;;;;7.72;4.53;;;12.40;99.90;;;;;;5029957;28;20161;-79
2021/12/14 09:56:20;;;;;;;9.38;4.93;;;11.90;99.90;;;;;;5029639;28;20277;-79
2021/12/14 09:58:51;;;;;;;10.02;4.97;;;12.60;99.90;;;;;;5029735;28;20210;-79
2021/12/14 10:01:29;;;;;;;11.32;5.63;;;13.20;99.90;;;;;;5029941;28;20154;-79
2021/12/14 10:03:59;;;;;;;9.15;4.72;;;13.30;99.90;;;;;;5029815;28;20166;-79
2021/12/14 10:06:30;;;;;;;10.27;5.45;;;13.40;99.90;;;;;;5029816;28;20158;-78
2021/12/14 10:09:02;;;;;;;9.90;4.63;;;13.00;99.90;;;;;;5029466;28;20226;-78
2021/12/14 10:11:49;;;;;;;8.18;5.38;;;13.00;99.90;;;;;;5029897;28;20158;-78
2021/12/14 10:14:19;;;;;;;8.35;4.95;;;12.80;99.90;;;;;;5029666;28;20158;-78
2021/12/14 10:16:46;;;;;;;9.55;5.57;;;12.60;99.90;;;;;;5029691;28;20197;-78
2021/12/14 10:19:16;;;;;;;11.43;5.35;;;12.20;99.90;;;;;;5029647;28;20257;-78
2021/12/14 10:22:10;;;;;;;10.05;6.03;;;12.00;99.90;;;;;;5029763;28;20173;-78
2021/12/14 10:24:37;;;;;;;10.82;5.38;;;11.00;99.90;;;;;;5029396;28;20551;-78
2021/12/14 10:27:09;;;;;;;8.38;4.82;;;10.60;99.90;;;;;;5029511;28;20158;-78
2021/12/14 10:29:35;;;;;;;12.10;6.05;;;10.50;99.90;;;;;;5029557;28;20640;-78
2021/12/14 10:32:21;;;;;;;10.95;4.60;;;10.60;99.90;;;;;;5029438;28;20216;-78
2021/12/14 10:34:53;;;;;;;10.43;5.00;;;10.40;99.90;;;;;;5029439;28;20178;-78
2021/12/14 10:37:25;;;;;;;14.55;5.90;;;10.10;99.90;;;;;;5029174;28;20164;-77
2021/12/14 10:45:17;;;;;;;9.20;5.45;;;8.90;99.90;;;;;;5029187;28;20278;-77
2021/12/14 10:47:44;;;;;;;17.90;7.00;;;8.70;99.90;;;;;;5029235;28;20253;-77
2021/12/14 10:50:15;;;;;;;12.48;5.57;;;8.70;99.90;;;;;;5029172;28;20250;-77
2021/12/14 10:52:43;;;;;;;11.38;6.47;;;8.50;99.90;;;;;;5029228;28;20177;-78
2021/12/14 10:55:45;;;;;;;10.48;6.97;;;8.30;99.90;;;;;;5029312;28;20166;-77
2021/12/14 10:58:13;;;;;;;14.52;8.20;;;8.30;99.90;;;;;;4941984;29;20218;-77
2021/12/14 11:00:54;;;;;;;12.65;7.95;;;8.20;99.90;;;;;;4968025;28;20400;-78
2021/12/14 11:03:25;;;;;;;15.90;8.20;;;8.30;99.90;;;;;;4968179;29;20278;-78
2021/12/14 11:05:57;;;;;;;14.57;8.88;;;8.40;99.90;;;;;;4968214;29;20233;-77
2021/12/14 11:08:47;;;;;;;13.23;8.60;;;8.60;99.90;;;;;;4968453;29;20190;-77
2021/12/14 11:11:21;;;;;;;12.25;7.95;;;8.80;99.90;;;;;;4968553;29;20199;-77
2021/12/14 11:13:53;;;;;;;17.27;9.13;;;8.90;99.90;;;;;;4968194;28;20183;-77
2021/12/14 11:18:07;;;;;;;15.52;9.00;;;8.70;99.90;;;;;;4968230;29;20276;-76
2021/12/14 11:19:13;;;;;;;14.23;8.77;;;8.70;99.90;;;;;;4968195;28;20268;-77
2021/12/14 11:21:39;;;;;;;14.05;8.63;;;9.00;99.90;;;;;;4971197;29;20215;-77
2021/12/14 11:24:05;;;;;;;11.88;8.45;;;9.40;99.90;;;;;;4972127;29;20167;-77
2021/12/14 11:26:35;;;;;;;15.15;8.52;;;10.10;99.90;;;;;;4972012;28;20184;-77
2021/12/14 11:29:13;;;;;;;15.38;8.27;;;10.60;99.90;;;;;;4972085;29;20203;-77
2021/12/14 11:31:46;;;;;;;17.88;8.40;;;11.10;99.90;;;;;;4972043;29;20207;-77
2021/12/14 11:34:16;;;;;;;16.17;9.30;;;11.50;99.90;;;;;;5029561;28;20185;-77
2021/12/14 11:37:00;;;;;;;18.92;9.52;;;12.10;99.90;;;;;;5052360;28;20153;-77
2021/12/14 11:39:29;;;;;;;16.77;9.18;;;12.60;99.90;;;;;;5050955;28;20197;-77
2021/12/14 11:42:12;;;;;;;14.70;8.65;;;12.60;99.90;;;;;;5052252;28;20197;-77
2021/12/14 11:44:42;;;;;;;16.67;9.07;;;12.60;99.90;;;;;;5052208;28;20185;-78
2021/12/14 11:50:04;;;;;;;15.65;8.48;;;12.60;99.90;;;;;;5052105;28;20201;-77
2021/12/14 11:52:57;;;;;;;16.17;8.65;;;12.70;99.90;;;;;;5052290;28;20157;-78
2021/12/14 11:55:31;;;;;;;13.55;8.55;;;12.70;99.90;;;;;;5052053;28;20162;-77
2021/12/14 11:58:19;;;;;;;13.40;8.80;;;13.00;99.90;;;;;;5047281;28;20264;-77
2021/12/14 12:00:51;;;;;;;15.75;9.75;;;12.50;99.90;;;;;;5031695;28;20301;-77
2021/12/14 12:03:41;;;;;;;16.13;9.55;;;12.10;99.90;;;;;;5031920;28;20169;-78
2021/12/14 12:06:25;;;;;;;17.27;10.15;;;11.40;99.90;;;;;;5031875;28;20212;-77
2021/12/14 12:11:45;;;;;;;15.02;8.70;;;10.30;99.90;;;;;;5031784;28;20168;-76
2021/12/14 12:14:25;;;;;;;13.15;8.10;;;10.50;99.90;;;;;;5031726;28;20170;-76
2021/12/14 12:16:54;;;;;;;19.15;9.13;;;10.10;99.90;;;;;;5011029;28;20227;-78
2021/12/14 12:19:27;;;;;;;22.08;8.77;;;9.80;99.90;;;;;;5025344;28;20232;-78
2021/12/14 12:21:55;;;;;;;13.63;9.07;;;9.50;99.90;;;;;;5018974;28;20166;-76
2021/12/14 12:24:33;;;;;;;19.52;9.68;;;9.20;99.90;;;;;;5010203;28;20198;-78
2021/12/14 12:27:15;;;;;;;15.02;8.35;;;9.00;99.90;;;;;;5017050;28;20234;-77
2021/12/14 12:29:42;;;;;;;13.20;8.60;;;8.90;99.90;;;;;;5012038;28;20191;-77
2021/12/14 12:32:18;;;;;;;15.90;9.45;;;8.80;99.90;;;;;;5011433;28;20151;-76
2021/12/14 12:34:45;;;;;;;15.23;8.88;;;8.90;99.90;;;;;;5011706;28;20182;-78
2021/12/14 12:37:12;;;;;;;15.10;10.05;;;9.00;99.90;;;;;;5012173;28;20166;-78
2021/12/14 12:39:46;;;;;;;17.20;9.18;;;9.10;99.90;;;;;;4994308;28;20282;-77
2021/12/14 12:42:13;;;;;;;15.30;9.45;;;9.10;99.90;;;;;;5012125;28;20631;-78
2021/12/14 12:44:43;;;;;;;13.98;8.48;;;9.00;99.90;;;;;;5011618;28;20191;-79
2021/12/14 12:47:12;;;;;;;19.05;8.98;;;8.90;99.90;;;;;;5011417;28;20219;-79
2021/12/14 12:49:46;;;;;;;16.65;10.27;;;8.70;99.90;;;;;;5011244;28;20201;-77
2021/12/14 12:52:19;;;;;;;16.52;8.48;;;8.30;99.90;;;;;;5011491;28;20159;-79
2021/12/14 12:54:57;;;;;;;14.55;9.30;;;8.10;99.90;;;;;;5011252;28;20175;-79
2021/12/14 12:58:10;;;;;;;16.02;9.05;;;8.30;99.90;;;;;;5011330;28;20173;-79
2021/12/14 13:00:43;;;;;;;14.43;8.50;;;8.20;99.90;;;;;;5011304;28;20207;-73
2021/12/14 13:03:16;;;;;;;15.68;8.95;;;8.00;99.90;;;;;;5010690;28;20206;-74
2021/12/14 13:05:53;;;;;;;14.13;8.80;;;8.00;99.90;;;;;;5011250;28;20190;-74
2021/12/14 13:08:36;;;;;;;14.13;8.85;;;7.80;99.90;;;;;;5011170;28;20155;-73
2021/12/14 13:11:10;;;;;;;12.80;7.03;;;7.70;99.90;;;;;;5010823;28;20198;-74
2021/12/14 13:13:48;;;;;;;13.93;7.28;;;7.60;99.90;;;;;;5010191;28;20249;-73
2021/12/14 13:16:22;;;;;;;13.52;6.85;;;7.60;99.90;;;;;;4993289;28;20169;-73
2021/12/14 13:18:51;;;;;;;15.48;7.20;;;7.50;99.90;;;;;;5010914;28;20288;-74
2021/12/14 13:21:26;;;;;;;9.32;6.18;;;7.50;99.90;;;;;;5010803;28;20218;-73
2021/12/14 13:24:09;;;;;;;15.10;6.82;;;7.50;99.90;;;;;;5010886;28;20157;-73
2021/12/14 13:26:49;;;;;;;12.50;7.05;;;7.40;99.90;;;;;;5010622;28;20155;-73
2021/12/14 13:29:18;;;;;;;12.80;5.70;;;7.30;99.90;;;;;;4993176;28;20213;-73
2021/12/14 13:31:58;;;;;;;18.38;6.13;;;7.30;99.90;;;;;;5010529;28;20156;-74
2021/12/14 13:34:38;;;;;;;63.65;24.50;;;7.20;99.90;;;;;;4993183;28;20190;-73
2021/12/14 13:37:05;;;;;;;17.92;8.55;;;7.20;99.90;;;;;;5010770;28;20159;-73
2021/12/14 13:39:32;;;;;;;16.13;8.68;;;7.00;99.90;;;;;;5010796;28;20225;-73
2021/12/14 13:41:58;;;;;;;10.73;6.40;;;7.00;99.90;;;;;;4993101;28;20167;-73
2021/12/14 13:44:30;;;;;;;10.95;6.15;;;6.90;99.90;;;;;;5010191;28;20246;-73
2021/12/14 13:46:58;;;;;;;14.60;5.85;;;6.90;99.90;;;;;;5010355;28;20238;-73
2021/12/14 13:49:26;;;;;;;16.20;7.20;;;6.80;99.90;;;;;;5010180;28;20186;-74
2021/12/14 13:51:54;;;;;;;16.40;6.38;;;6.80;99.90;;;;;;5010384;28;20155;-74